Time;durP1;ratioP1;P1;durP2;ratioP2;P2;SDS_P1;SDS_P2;PMS_P1;PMS_P2;Temp;Humidity;BMP_temperature;BMP_pressure;BME280_temperature;BME280_humidity;BME280_pressure;Samples;Min_cycle;Max_cycle;Signal;HPM_P1;HPM_P2
2022/10/21 00:01:44;;;;;;;66.93;44.75;;;11.80;99.90;;;;;;5043336;28;20079;-76
2022/10/21 00:04:09;;;;;;;70.10;46.95;;;11.80;99.90;;;;;;5030892;28;20040;-77
2022/10/21 00:06:35;;;;;;;43.25;36.03;;;11.80;99.90;;;;;;5053077;28;20048;-76
2022/10/21 00:09:01;;;;;;;63.25;43.25;;;11.80;99.90;;;;;;5041661;28;20028;-76
2022/10/21 00:11:29;;;;;;;44.75;37.28;;;11.80;99.90;;;;;;5027582;28;20413;-76
2022/10/21 00:13:55;;;;;;;50.35;38.47;;;11.80;99.90;;;;;;5044943;28;20434;-76
2022/10/21 00:16:21;;;;;;;50.20;39.20;;;11.80;99.90;;;;;;5021157;28;20033;-76
2022/10/21 00:18:50;;;;;;;56.60;40.65;;;11.80;99.90;;;;;;5019994;28;20175;-76
2022/10/21 00:21:19;;;;;;;42.60;34.07;;;11.80;99.90;;;;;;5037809;28;20040;-76
2022/10/21 00:23:51;;;;;;;40.78;36.28;;;11.80;99.90;;;;;;5044206;28;20419;-76
2022/10/21 00:26:18;;;;;;;73.30;46.47;;;11.80;99.90;;;;;;5052889;28;20044;-76
2022/10/21 00:28:44;;;;;;;52.47;41.08;;;11.70;99.90;;;;;;5044511;28;20514;-76
2022/10/21 00:31:11;;;;;;;60.88;43.38;;;11.70;99.90;;;;;;5025785;28;20135;-76
2022/10/21 00:33:37;;;;;;;45.92;36.78;;;11.70;99.90;;;;;;5018163;28;20075;-76
2022/10/21 00:36:06;;;;;;;50.83;40.83;;;11.80;99.90;;;;;;5058010;28;20050;-76
2022/10/21 00:38:32;;;;;;;44.72;36.72;;;11.70;99.90;;;;;;5025827;28;20056;-76
2022/10/21 00:40:59;;;;;;;54.45;38.92;;;11.70;99.90;;;;;;5021657;28;20037;-76
2022/10/21 00:43:26;;;;;;;53.25;41.38;;;11.70;99.90;;;;;;5033117;28;20053;-77
2022/10/21 00:45:56;;;;;;;72.25;45.90;;;11.70;99.90;;;;;;5029284;28;20041;-77
2022/10/21 00:48:37;;;;;;;55.58;41.03;;;11.70;99.90;;;;;;5041510;28;20075;-77
2022/10/21 00:51:10;;;;;;;46.45;36.70;;;11.70;99.90;;;;;;5053689;28;20759;-77
2022/10/21 00:53:40;;;;;;;75.40;47.55;;;11.70;99.90;;;;;;5060154;28;20403;-77
2022/10/21 00:56:12;;;;;;;59.35;42.13;;;11.70;99.90;;;;;;5043839;28;20048;-82
2022/10/21 00:58:39;;;;;;;64.88;41.65;;;11.60;99.90;;;;;;5062651;28;20498;-82
2022/10/21 01:01:06;;;;;;;46.13;38.55;;;11.60;99.90;;;;;;5041034;28;20052;-82
2022/10/21 01:03:34;;;;;;;41.83;35.05;;;11.60;99.90;;;;;;5062626;28;20491;-82
2022/10/21 01:06:04;;;;;;;87.70;48.78;;;11.60;99.90;;;;;;5046830;28;20040;-82
2022/10/21 01:08:31;;;;;;;46.45;37.20;;;11.60;99.90;;;;;;5061460;28;20040;-82
2022/10/21 01:10:59;;;;;;;64.93;41.75;;;11.50;99.90;;;;;;5046230;28;20132;-82
2022/10/21 01:13:53;;;;;;;41.25;34.58;;;11.50;99.90;;;;;;5044788;28;20434;-82
2022/10/21 01:16:35;;;;;;;59.40;38.65;;;11.50;99.90;;;;;;5063854;28;20044;-82
2022/10/21 01:19:32;;;;;;;47.28;36.17;;;11.50;99.90;;;;;;5063745;28;20048;-82
2022/10/21 01:22:08;;;;;;;85.13;43.80;;;11.50;99.90;;;;;;5066936;28;20052;-82
2022/10/21 01:24:42;;;;;;;57.03;39.97;;;11.50;99.90;;;;;;5059651;28;20076;-82
2022/10/21 01:27:34;;;;;;;47.60;36.80;;;11.40;99.90;;;;;;5059311;28;20135;-82
2022/10/21 01:30:24;;;;;;;69.95;43.65;;;11.40;99.90;;;;;;5049630;28;20044;-82
2022/10/21 01:32:59;;;;;;;44.33;36.58;;;11.40;99.90;;;;;;5067210;28;20071;-82
2022/10/21 01:35:33;;;;;;;44.15;36.00;;;11.40;99.90;;;;;;5062251;28;20078;-82
2022/10/21 01:38:18;;;;;;;46.95;38.25;;;11.40;99.90;;;;;;5059418;28;20507;-82
2022/10/21 01:41:08;;;;;;;43.88;36.78;;;11.40;99.90;;;;;;5035516;28;20142;-83
2022/10/21 01:43:43;;;;;;;47.80;37.83;;;11.50;99.90;;;;;;5059978;28;20040;-82
2022/10/21 01:46:22;;;;;;;53.17;40.33;;;11.40;99.90;;;;;;5037301;28;20577;-82
2022/10/21 01:48:54;;;;;;;89.75;49.00;;;11.40;99.90;;;;;;5061664;28;20045;-77
2022/10/21 01:51:21;;;;;;;67.80;43.17;;;11.50;99.90;;;;;;5060039;28;20056;-77
2022/10/21 01:54:19;;;;;;;63.90;42.67;;;11.40;99.90;;;;;;5046142;28;20037;-77
2022/10/21 01:56:49;;;;;;;54.10;41.63;;;11.40;99.90;;;;;;5027448;28;20510;-77
2022/10/21 01:59:16;;;;;;;68.63;46.97;;;11.40;99.90;;;;;;5037446;28;20036;-77
2022/10/21 02:01:44;;;;;;;74.50;48.78;;;11.50;99.90;;;;;;5054924;28;20052;-83
2022/10/21 02:04:11;;;;;;;58.45;42.47;;;11.60;99.90;;;;;;5048162;28;20061;-82
2022/10/21 02:06:40;;;;;;;55.20;42.78;;;11.60;99.90;;;;;;5058085;28;20518;-83
2022/10/21 02:09:06;;;;;;;55.72;43.15;;;11.70;99.90;;;;;;5025894;28;20604;-82
2022/10/21 02:11:36;;;;;;;74.95;47.13;;;11.70;99.90;;;;;;5054988;28;20053;-82
2022/10/21 02:14:13;;;;;;;104.22;55.70;;;11.80;99.90;;;;;;5056591;28;20045;-82
2022/10/21 02:16:40;;;;;;;59.28;43.30;;;11.90;99.90;;;;;;5070203;28;20051;-83
2022/10/21 02:19:14;;;;;;;95.43;53.63;;;11.90;99.90;;;;;;5062098;28;20045;-82
2022/10/21 02:21:45;;;;;;;72.63;47.45;;;11.90;99.90;;;;;;5046094;28;20060;-83
2022/10/21 02:24:41;;;;;;;58.97;43.92;;;11.90;99.90;;;;;;5057140;28;20045;-82
2022/10/21 02:27:07;;;;;;;70.93;46.15;;;12.00;99.90;;;;;;5041277;28;20057;-82
2022/10/21 02:29:39;;;;;;;67.95;45.35;;;12.00;99.90;;;;;;5058124;28;20033;-81
2022/10/21 02:32:23;;;;;;;76.53;48.30;;;12.00;99.90;;;;;;5055991;28;20041;-79
2022/10/21 02:35:28;;;;;;;67.53;47.55;;;12.10;99.90;;;;;;5061233;28;20056;-80
2022/10/21 02:38:06;;;;;;;83.28;52.22;;;12.10;99.90;;;;;;5032323;28;20045;-79
2022/10/21 02:40:37;;;;;;;69.97;47.58;;;12.20;99.90;;;;;;5057167;28;20496;-79
2022/10/21 02:43:18;;;;;;;67.28;46.67;;;12.10;99.90;;;;;;5053487;28;20075;-79
2022/10/21 02:45:46;;;;;;;66.97;47.47;;;12.20;99.90;;;;;;5060223;28;20057;-79
2022/10/21 02:48:12;;;;;;;70.30;48.53;;;12.20;99.90;;;;;;5046686;28;20067;-79
2022/10/21 02:50:38;;;;;;;75.68;48.05;;;12.20;99.90;;;;;;5056687;28;20318;-79
2022/10/21 02:53:04;;;;;;;75.32;48.88;;;12.20;99.90;;;;;;5027418;28;20044;-78
2022/10/21 02:55:32;;;;;;;64.53;44.72;;;12.20;99.90;;;;;;5060347;28;20071;-78
2022/10/21 02:58:01;;;;;;;68.38;44.75;;;12.20;99.90;;;;;;5064882;28;20040;-78
2022/10/21 03:00:27;;;;;;;76.00;46.85;;;12.20;99.90;;;;;;5061111;28;20033;-79
2022/10/21 03:02:52;;;;;;;83.65;50.92;;;12.20;99.90;;;;;;5010860;28;20064;-79
2022/10/21 03:05:18;;;;;;;68.32;46.53;;;12.30;99.90;;;;;;5011841;28;20041;-80
2022/10/21 03:07:44;;;;;;;63.75;45.35;;;12.20;99.90;;;;;;5062191;28;20040;-77
2022/10/21 03:10:10;;;;;;;72.13;48.38;;;12.30;99.90;;;;;;5048504;28;20153;-77
2022/10/21 03:12:35;;;;;;;87.65;50.15;;;12.30;99.90;;;;;;5043766;28;20047;-80
2022/10/21 03:15:02;;;;;;;131.65;60.65;;;12.30;99.90;;;;;;5029793;28;20039;-79
2022/10/21 03:17:28;;;;;;;63.42;45.28;;;12.30;99.90;;;;;;5061211;28;20064;-79
2022/10/21 03:19:59;;;;;;;70.43;46.95;;;12.30;99.90;;;;;;5046244;28;20549;-79
2022/10/21 03:22:25;;;;;;;69.45;45.17;;;12.30;99.90;;;;;;5044945;28;20060;-79
2022/10/21 03:24:51;;;;;;;63.60;44.33;;;12.30;99.90;;;;;;5046878;28;20094;-79
2022/10/21 03:27:17;;;;;;;60.40;44.45;;;12.30;99.90;;;;;;5009489;28;20047;-79
2022/10/21 03:29:42;;;;;;;94.38;52.22;;;12.30;99.90;;;;;;5013803;28;20036;-79
2022/10/21 03:32:08;;;;;;;146.23;60.42;;;12.40;99.90;;;;;;5060691;28;20052;-79
2022/10/21 03:34:34;;;;;;;59.22;43.00;;;12.40;99.90;;;;;;5047933;28;20052;-79
2022/10/21 03:37:00;;;;;;;79.82;48.78;;;12.30;99.90;;;;;;5025189;28;20071;-78
2022/10/21 03:39:26;;;;;;;81.72;48.75;;;12.30;99.90;;;;;;5060992;28;20043;-80
2022/10/21 03:41:51;;;;;;;69.30;44.22;;;12.40;99.90;;;;;;5063019;28;20495;-80
2022/10/21 03:44:17;;;;;;;45.67;36.42;;;12.30;99.90;;;;;;5025808;28;20048;-78
2022/10/21 03:46:43;;;;;;;183.13;62.20;;;12.40;99.90;;;;;;5028357;28;20133;-78
2022/10/21 03:49:10;;;;;;;301.80;71.32;;;12.30;99.90;;;;;;5056585;28;20044;-78
2022/10/21 03:51:39;;;;;;;55.08;38.83;;;12.30;99.90;;;;;;5060360;28;20335;-79
2022/10/21 03:54:04;;;;;;;184.70;54.00;;;12.30;99.90;;;;;;5025878;28;20040;-78
2022/10/21 03:56:31;;;;;;;41.42;35.20;;;12.20;99.90;;;;;;5024673;28;20037;-78
2022/10/21 03:58:57;;;;;;;70.95;43.03;;;12.20;99.90;;;;;;5046321;28;20040;-78
2022/10/21 04:01:22;;;;;;;51.78;38.70;;;12.20;99.90;;;;;;5042219;28;20055;-78
2022/10/21 04:03:48;;;;;;;114.22;46.17;;;12.20;99.90;;;;;;5053596;28;20098;-78
2022/10/21 04:06:14;;;;;;;65.55;42.33;;;12.20;99.90;;;;;;5028019;28;20148;-79
2022/10/21 04:08:40;;;;;;;44.28;35.80;;;12.20;99.90;;;;;;5049687;28;20090;-78
2022/10/21 04:11:05;;;;;;;60.42;40.53;;;12.20;99.90;;;;;;5057226;28;20056;-79
2022/10/21 04:13:31;;;;;;;200.60;59.60;;;12.20;99.90;;;;;;5024651;28;20041;-79
2022/10/21 04:15:59;;;;;;;70.95;43.25;;;12.10;99.90;;;;;;5058819;28;20127;-79
2022/10/21 04:18:25;;;;;;;100.95;48.55;;;12.20;99.90;;;;;;5043729;28;20059;-79
2022/10/21 04:20:54;;;;;;;48.53;36.78;;;12.20;99.90;;;;;;5034275;28;20061;-79
2022/10/21 04:23:20;;;;;;;52.05;39.30;;;12.20;99.90;;;;;;5040658;28;20147;-79
2022/10/21 04:25:46;;;;;;;129.93;54.42;;;12.20;99.90;;;;;;5022183;28;20132;-79
2022/10/21 04:28:12;;;;;;;102.65;50.55;;;12.20;99.90;;;;;;5056670;28;20120;-79
2022/10/21 04:30:38;;;;;;;72.95;42.80;;;12.20;99.90;;;;;;5037511;28;20056;-80
2022/10/21 04:33:07;;;;;;;66.07;43.10;;;12.20;99.90;;;;;;5032119;28;20070;-79
2022/10/21 04:35:33;;;;;;;78.05;46.83;;;12.20;99.90;;;;;;5018011;28;20060;-79
2022/10/21 04:37:59;;;;;;;85.25;49.20;;;12.20;99.90;;;;;;5026240;28;20139;-79
2022/10/21 04:40:26;;;;;;;189.95;63.22;;;12.20;99.90;;;;;;5020731;28;20037;-79
2022/10/21 04:42:51;;;;;;;61.45;41.50;;;12.20;99.90;;;;;;5034784;28;20119;-79
2022/10/21 04:45:17;;;;;;;68.75;43.05;;;12.20;99.90;;;;;;5012902;28;20507;-79
2022/10/21 04:47:43;;;;;;;102.97;50.63;;;12.20;99.90;;;;;;5048868;28;20040;-79
2022/10/21 04:50:10;;;;;;;293.30;76.32;;;12.20;99.90;;;;;;5035988;28;20061;-79
2022/10/21 04:52:36;;;;;;;114.25;52.53;;;12.20;99.90;;;;;;5051557;28;20048;-79
2022/10/21 04:55:02;;;;;;;77.28;46.65;;;12.10;99.90;;;;;;5021040;28;20037;-79
2022/10/21 04:57:29;;;;;;;72.07;43.63;;;12.20;99.90;;;;;;5051807;28;20108;-79
2022/10/21 04:59:54;;;;;;;137.65;59.13;;;12.20;99.90;;;;;;5028841;28;20041;-80
2022/10/21 05:02:20;;;;;;;199.63;61.17;;;12.10;99.90;;;;;;5018272;28;20048;-79
2022/10/21 05:04:46;;;;;;;87.93;45.92;;;12.10;99.90;;;;;;5048781;28;20040;-79
2022/10/21 05:07:12;;;;;;;106.00;51.95;;;12.10;99.90;;;;;;5025904;28;20052;-78
2022/10/21 05:09:37;;;;;;;90.50;48.45;;;12.10;99.90;;;;;;5028201;28;20044;-79
2022/10/21 05:12:03;;;;;;;192.95;64.55;;;12.10;99.90;;;;;;5063590;28;20064;-79
2022/10/21 05:14:29;;;;;;;129.48;56.10;;;12.10;99.90;;;;;;5061384;28;20103;-79
2022/10/21 05:16:55;;;;;;;223.30;61.92;;;12.10;99.90;;;;;;5025373;28;20056;-80
2022/10/21 05:19:21;;;;;;;262.58;68.35;;;12.10;99.90;;;;;;5049305;28;20518;-80
2022/10/21 05:21:47;;;;;;;86.65;49.40;;;12.10;99.90;;;;;;5049334;28;20054;-79
2022/10/21 05:24:17;;;;;;;138.20;53.53;;;12.10;99.90;;;;;;5030473;28;20052;-81
2022/10/21 05:26:42;;;;;;;102.53;52.03;;;12.10;99.90;;;;;;5039711;28;20124;-80
2022/10/21 05:29:08;;;;;;;160.88;58.17;;;12.10;99.90;;;;;;5044042;28;20563;-79
2022/10/21 05:31:34;;;;;;;98.95;50.60;;;12.10;99.90;;;;;;5050884;28;20040;-80
2022/10/21 05:34:00;;;;;;;280.77;70.20;;;12.10;99.90;;;;;;5049447;28;20048;-79
2022/10/21 05:36:26;;;;;;;91.50;50.05;;;12.10;99.90;;;;;;5031536;28;20842;-79
2022/10/21 05:38:52;;;;;;;76.05;45.33;;;12.00;99.90;;;;;;5042533;28;20045;-79
2022/10/21 05:41:18;;;;;;;96.22;50.22;;;12.00;99.90;;;;;;5034355;28;20044;-80
2022/10/21 05:43:44;;;;;;;151.93;59.15;;;12.00;99.90;;;;;;5036585;28;20082;-80
2022/10/21 05:46:10;;;;;;;100.32;51.42;;;12.00;99.90;;;;;;5067664;28;20402;-80
2022/10/21 05:48:36;;;;;;;79.28;47.97;;;12.00;99.90;;;;;;5047707;28;20033;-79
2022/10/21 05:51:03;;;;;;;71.13;43.83;;;11.90;99.90;;;;;;5025648;28;20461;-80
2022/10/21 05:53:29;;;;;;;138.00;56.63;;;11.90;99.90;;;;;;5039613;28;20098;-80
2022/10/21 05:56:03;;;;;;;97.13;48.10;;;11.90;99.90;;;;;;5055772;28;20041;-79
2022/10/21 05:58:30;;;;;;;122.20;52.03;;;11.90;99.90;;;;;;5025989;28;20056;-80
2022/10/21 06:00:57;;;;;;;66.00;44.53;;;11.90;99.90;;;;;;5064376;28;20044;-80
2022/10/21 06:03:28;;;;;;;70.07;45.47;;;11.90;99.90;;;;;;5032835;28;20578;-79
2022/10/21 06:05:55;;;;;;;69.88;45.00;;;11.90;99.90;;;;;;5038255;28;20061;-80
2022/10/21 06:08:20;;;;;;;59.65;42.42;;;11.90;99.90;;;;;;5049020;28;20045;-80
2022/10/21 06:10:46;;;;;;;72.13;46.33;;;11.90;99.90;;;;;;5038205;28;20057;-80
2022/10/21 06:13:12;;;;;;;73.88;45.80;;;11.90;99.90;;;;;;5022991;28;20131;-79
2022/10/21 06:15:38;;;;;;;82.18;48.42;;;11.90;99.90;;;;;;5030158;28;20120;-79
2022/10/21 06:18:05;;;;;;;73.70;44.90;;;11.90;99.90;;;;;;5053966;28;20071;-79
2022/10/21 06:20:31;;;;;;;90.35;50.30;;;11.90;99.90;;;;;;5042570;28;20041;-79
2022/10/21 06:23:01;;;;;;;60.58;42.22;;;11.90;99.90;;;;;;5033194;28;20140;-79
2022/10/21 06:25:27;;;;;;;72.95;45.67;;;11.90;99.90;;;;;;5022355;28;20040;-79
2022/10/21 06:27:52;;;;;;;94.63;50.85;;;11.90;99.90;;;;;;5043846;28;20044;-79
2022/10/21 06:30:19;;;;;;;108.43;54.63;;;11.90;99.90;;;;;;5049300;28;20101;-80
2022/10/21 06:32:44;;;;;;;65.90;43.17;;;11.90;99.90;;;;;;5039232;28;20053;-79
2022/10/21 06:35:10;;;;;;;77.47;48.45;;;11.90;99.90;;;;;;5011493;28;20513;-79
2022/10/21 06:37:36;;;;;;;104.65;53.00;;;12.00;99.90;;;;;;5035533;28;20529;-79
2022/10/21 06:40:03;;;;;;;81.82;49.67;;;12.00;99.90;;;;;;5008132;28;20072;-79
2022/10/21 06:42:32;;;;;;;108.43;54.10;;;12.00;99.90;;;;;;5034483;28;20048;-79
2022/10/21 06:44:58;;;;;;;72.25;46.05;;;12.00;99.90;;;;;;5010902;28;20068;-80
2022/10/21 06:47:24;;;;;;;95.30;51.35;;;12.00;99.90;;;;;;5008704;28;20532;-79
2022/10/21 06:49:50;;;;;;;73.75;45.15;;;12.00;99.90;;;;;;5025798;28;20044;-79
2022/10/21 06:52:16;;;;;;;65.00;43.13;;;12.00;99.90;;;;;;5023516;28;20037;-80
2022/10/21 06:54:42;;;;;;;92.00;50.92;;;12.10;99.90;;;;;;5022098;28;20062;-79
2022/10/21 06:57:07;;;;;;;79.13;48.78;;;12.10;99.90;;;;;;5027695;28;20049;-79
2022/10/21 06:59:33;;;;;;;178.93;66.10;;;12.10;99.90;;;;;;5023750;28;20049;-80
2022/10/21 07:01:59;;;;;;;143.73;58.78;;;12.10;99.90;;;;;;5016650;28;20102;-79
2022/10/21 07:04:25;;;;;;;62.30;42.67;;;12.10;99.90;;;;;;5041747;28;20124;-78
2022/10/21 07:06:51;;;;;;;76.93;47.25;;;12.10;99.90;;;;;;5036104;28;20044;-78
2022/10/21 07:09:17;;;;;;;145.15;60.13;;;12.20;99.90;;;;;;5039256;28;20072;-77
2022/10/21 07:11:43;;;;;;;67.22;44.70;;;12.20;99.90;;;;;;5051139;28;20227;-77
2022/10/21 07:14:11;;;;;;;107.13;54.25;;;12.20;99.90;;;;;;5027050;28;20403;-78
2022/10/21 07:16:37;;;;;;;110.72;55.03;;;12.20;99.90;;;;;;5050199;28;20048;-78
2022/10/21 07:19:04;;;;;;;101.05;52.03;;;12.20;99.90;;;;;;5055445;28;20056;-78
2022/10/21 07:21:31;;;;;;;86.60;48.42;;;12.30;99.90;;;;;;5052375;28;20047;-78
2022/10/21 07:23:57;;;;;;;62.15;42.38;;;12.30;99.90;;;;;;5040712;28;20055;-78
2022/10/21 07:26:29;;;;;;;66.72;43.38;;;12.30;99.90;;;;;;5041863;28;20364;-78
2022/10/21 07:28:57;;;;;;;157.93;61.58;;;12.30;99.90;;;;;;5037490;28;20036;-78
2022/10/21 07:31:23;;;;;;;92.05;49.85;;;12.40;99.90;;;;;;5028946;28;20144;-78
2022/10/21 07:33:49;;;;;;;79.78;48.28;;;12.40;99.90;;;;;;5014980;28;20090;-78
2022/10/21 07:36:24;;;;;;;60.80;42.33;;;12.40;99.90;;;;;;5058912;28;20398;-78
2022/10/21 07:38:51;;;;;;;61.80;43.03;;;12.40;99.90;;;;;;5043667;28;20055;-78
2022/10/21 07:41:26;;;;;;;61.88;42.50;;;12.40;99.90;;;;;;5037165;28;20071;-78
2022/10/21 07:43:52;;;;;;;68.35;44.40;;;12.40;99.90;;;;;;5048018;28;20045;-78
2022/10/21 07:46:20;;;;;;;98.32;50.88;;;12.40;99.90;;;;;;5073228;28;20415;-78
2022/10/21 07:48:46;;;;;;;79.43;46.92;;;12.40;99.90;;;;;;5058908;28;20040;-78
2022/10/21 07:51:15;;;;;;;97.47;48.70;;;12.40;99.90;;;;;;5030174;28;20078;-78
2022/10/21 07:53:41;;;;;;;79.30;48.63;;;12.40;99.90;;;;;;5035771;28;20416;-78
2022/10/21 07:56:20;;;;;;;57.35;42.55;;;12.50;99.90;;;;;;5056307;28;20248;-78
2022/10/21 07:58:47;;;;;;;135.38;57.50;;;12.50;99.90;;;;;;5055634;28;20044;-78
2022/10/21 08:01:14;;;;;;;93.57;52.03;;;12.60;99.90;;;;;;5033544;28;20053;-78
2022/10/21 08:03:40;;;;;;;86.35;51.30;;;12.60;99.90;;;;;;5052226;28;20079;-78
2022/10/21 08:06:08;;;;;;;63.53;42.22;;;12.70;99.90;;;;;;5053209;28;20533;-78
2022/10/21 08:08:35;;;;;;;174.80;64.80;;;12.70;99.90;;;;;;5027422;28;20048;-78
2022/10/21 08:11:01;;;;;;;75.80;48.30;;;12.80;99.90;;;;;;5057846;28;21065;-78
2022/10/21 08:13:27;;;;;;;58.80;40.60;;;13.00;99.90;;;;;;5047308;28;20052;-78
2022/10/21 08:15:53;;;;;;;55.95;41.47;;;13.00;99.90;;;;;;5040211;28;20359;-78
2022/10/21 08:18:20;;;;;;;59.33;42.22;;;13.10;99.90;;;;;;5048047;28;20045;-78
2022/10/21 08:20:47;;;;;;;58.40;42.63;;;13.20;99.90;;;;;;5044856;28;20079;-79
2022/10/21 08:23:15;;;;;;;71.85;47.70;;;13.30;99.90;;;;;;5031290;28;20079;-78
2022/10/21 08:25:52;;;;;;;61.05;43.75;;;13.40;99.90;;;;;;5021482;28;20392;-78
2022/10/21 08:28:24;;;;;;;55.35;41.55;;;13.50;99.90;;;;;;5069833;28;20041;-78
2022/10/21 08:30:50;;;;;;;49.20;39.45;;;13.60;99.90;;;;;;5050655;28;20064;-78
2022/10/21 08:33:16;;;;;;;48.13;39.40;;;13.70;99.90;;;;;;5047785;28;20049;-79
2022/10/21 08:35:42;;;;;;;65.85;44.42;;;13.90;99.90;;;;;;5030121;28;20087;-79
2022/10/21 08:38:09;;;;;;;53.25;40.42;;;13.90;99.90;;;;;;5024356;28;20142;-79
2022/10/21 08:40:45;;;;;;;44.83;36.67;;;14.10;99.90;;;;;;5030041;28;20415;-78
2022/10/21 08:43:28;;;;;;;38.28;31.52;;;14.20;99.90;;;;;;5032531;28;20098;-78
2022/10/21 08:46:03;;;;;;;37.05;29.80;;;14.30;99.90;;;;;;5058980;28;20075;-79
2022/10/21 08:49:04;;;;;;;36.90;32.40;;;14.40;99.90;;;;;;5056137;28;20582;-78
2022/10/21 08:51:44;;;;;;;47.45;36.92;;;14.50;99.90;;;;;;5015635;28;20518;-78
2022/10/21 08:54:19;;;;;;;39.08;33.25;;;14.50;99.90;;;;;;5049881;28;20079;-79
2022/10/21 08:56:49;;;;;;;39.28;33.05;;;14.70;99.90;;;;;;5031847;28;20033;-79
2022/10/21 08:59:24;;;;;;;32.60;28.47;;;14.70;99.90;;;;;;5040152;28;20045;-78
2022/10/21 09:02:23;;;;;;;34.30;29.63;;;14.80;99.90;;;;;;5034211;28;20049;-79
2022/10/21 09:05:25;;;;;;;32.45;28.27;;;14.90;99.90;;;;;;5053157;28;20053;-79
2022/10/21 09:08:15;;;;;;;31.13;26.45;;;15.00;99.90;;;;;;5076335;28;20064;-79
2022/10/21 09:10:44;;;;;;;30.98;27.67;;;15.00;99.90;;;;;;5049783;28;20111;-78
2022/10/21 09:13:29;;;;;;;30.98;26.33;;;15.00;99.90;;;;;;5053956;28;20547;-78
2022/10/21 09:16:06;;;;;;;30.15;26.98;;;15.00;99.90;;;;;;5031202;28;20119;-79
2022/10/21 09:18:51;;;;;;;28.77;24.77;;;15.00;99.90;;;;;;5031788;28;20071;-78
2022/10/21 09:21:56;;;;;;;28.85;25.67;;;15.10;99.90;;;;;;5052550;28;20056;-79
2022/10/21 09:24:59;;;;;;;29.02;26.05;;;15.00;99.90;;;;;;5033876;28;20404;-78
2022/10/21 09:27:25;;;;;;;29.58;25.40;;;15.10;99.90;;;;;;5025312;28;20510;-78
2022/10/21 09:30:00;;;;;;;26.15;23.55;;;15.10;99.90;;;;;;5031709;28;20048;-79
2022/10/21 09:32:35;;;;;;;25.95;23.23;;;15.10;99.90;;;;;;5055540;28;20048;-78
2022/10/21 09:35:20;;;;;;;26.52;23.60;;;15.10;99.90;;;;;;5042675;28;20060;-79
2022/10/21 09:38:16;;;;;;;26.02;23.30;;;15.10;99.90;;;;;;5047839;28;20084;-79
2022/10/21 09:40:44;;;;;;;29.63;26.13;;;15.10;99.90;;;;;;5057343;28;20407;-79
2022/10/21 09:43:18;;;;;;;27.60;23.20;;;15.20;99.90;;;;;;5048683;28;20053;-79
2022/10/21 09:45:45;;;;;;;26.98;23.85;;;15.30;99.90;;;;;;5060251;28;20356;-79
2022/10/21 09:48:17;;;;;;;28.95;24.20;;;15.40;99.90;;;;;;5061050;28;20067;-79
2022/10/21 09:50:45;;;;;;;30.73;23.20;;;15.50;99.90;;;;;;5052614;28;20045;-79
2022/10/21 09:53:22;;;;;;;22.67;20.38;;;15.60;99.90;;;;;;5034390;28;20041;-79
2022/10/21 09:55:55;;;;;;;23.45;20.83;;;15.70;99.90;;;;;;5057100;28;20041;-78
2022/10/21 09:58:31;;;;;;;24.20;19.48;;;15.70;99.90;;;;;;5049027;28;20041;-78
2022/10/21 10:00:57;;;;;;;21.70;19.17;;;15.80;99.90;;;;;;5038169;28;20052;-79
2022/10/21 10:04:09;;;;;;;24.60;20.10;;;15.80;99.90;;;;;;5040043;28;20075;-79
2022/10/21 10:06:44;;;;;;;32.30;24.35;;;15.90;99.90;;;;;;5038269;28;20146;-79
2022/10/21 10:09:43;;;;;;;22.63;19.02;;;15.80;99.90;;;;;;5033593;28;20045;-79
2022/10/21 10:12:14;;;;;;;21.67;18.70;;;15.90;99.90;;;;;;5051121;28;20080;-79
2022/10/21 10:14:45;;;;;;;19.48;17.45;;;15.90;99.90;;;;;;5054142;28;20075;-79
2022/10/21 10:17:16;;;;;;;;;;;15.90;99.90;;;;;;5051616;28;20041;-79
2022/10/21 10:19:42;;;;;;;19.08;17.05;;;15.90;99.90;;;;;;5059763;28;20371;-79
2022/10/21 10:22:13;;;;;;;20.80;17.95;;;15.80;99.90;;;;;;5042976;28;20098;-79
2022/10/21 10:24:43;;;;;;;19.13;16.13;;;15.90;99.90;;;;;;5044147;28;20056;-80
2022/10/21 10:27:15;;;;;;;21.80;19.38;;;15.90;99.90;;;;;;5046085;28;20158;-79
2022/10/21 10:29:47;;;;;;;21.23;16.48;;;15.90;99.90;;;;;;5045480;28;20411;-80
2022/10/21 10:32:15;;;;;;;19.08;16.90;;;16.00;99.90;;;;;;5060562;28;20079;-80
2022/10/21 10:34:52;;;;;;;21.60;18.13;;;16.00;99.90;;;;;;5058637;28;20125;-80
2022/10/21 10:37:26;;;;;;;26.20;19.05;;;16.00;99.90;;;;;;5039238;28;20068;-80
2022/10/21 10:39:57;;;;;;;20.90;17.42;;;16.00;99.90;;;;;;5057536;28;20487;-80
2022/10/21 10:42:34;;;;;;;18.85;16.35;;;16.00;99.90;;;;;;5016736;28;20041;-80
2022/10/21 10:45:11;;;;;;;20.90;16.85;;;16.10;99.90;;;;;;5050269;28;20088;-80
2022/10/21 10:47:41;;;;;;;16.38;14.60;;;16.10;99.90;;;;;;5059715;28;20127;-80
2022/10/21 10:50:36;;;;;;;17.60;14.88;;;16.10;99.90;;;;;;5051681;28;20045;-80
2022/10/21 10:53:26;;;;;;;17.63;15.30;;;16.10;99.90;;;;;;5046869;28;20052;-80
2022/10/21 10:56:11;;;;;;;17.60;15.70;;;16.20;99.90;;;;;;5055174;28;20678;-81
2022/10/21 10:59:00;;;;;;;17.83;15.57;;;16.20;99.90;;;;;;5039158;28;20449;-80
2022/10/21 11:01:36;;;;;;;21.55;16.13;;;16.20;99.90;;;;;;5037592;28;20052;-80
2022/10/21 11:04:16;;;;;;;20.70;17.13;;;16.20;99.90;;;;;;5055066;28;20107;-81
2022/10/21 11:06:49;;;;;;;16.35;14.30;;;16.30;99.90;;;;;;5036576;28;20131;-81
2022/10/21 11:09:16;;;;;;;17.98;14.30;;;16.30;99.90;;;;;;5058884;28;20530;-81
2022/10/21 11:11:47;;;;;;;15.38;13.75;;;16.30;99.90;;;;;;5036359;28;20502;-81
2022/10/21 11:14:17;;;;;;;16.02;14.32;;;16.30;99.90;;;;;;5043703;28;20086;-81
2022/10/21 11:17:11;;;;;;;21.35;14.30;;;16.40;99.90;;;;;;5034101;28;20036;-81
2022/10/21 11:20:01;;;;;;;16.63;14.52;;;16.40;99.90;;;;;;5029908;28;20088;-81
2022/10/21 11:22:47;;;;;;;18.00;14.50;;;16.30;99.90;;;;;;5051176;28;20423;-80
2022/10/21 11:25:41;;;;;;;20.38;14.50;;;16.40;99.90;;;;;;5054536;28;20049;-82
2022/10/21 11:28:41;;;;;;;16.52;14.23;;;16.50;99.90;;;;;;5046258;28;20408;-81
2022/10/21 11:31:10;;;;;;;16.73;13.98;;;16.60;99.90;;;;;;5037961;28;20487;-82
2022/10/21 11:33:53;;;;;;;17.17;14.35;;;16.50;99.90;;;;;;5059964;28;20052;-82
2022/10/21 11:37:00;;;;;;;17.25;13.38;;;16.60;99.90;;;;;;5067840;28;20061;-81
2022/10/21 11:39:39;;;;;;;16.88;12.70;;;16.60;99.90;;;;;;4998974;28;20099;-81
2022/10/21 11:42:25;;;;;;;14.52;11.93;;;16.60;99.90;;;;;;5002174;28;20056;-82
2022/10/21 11:45:22;;;;;;;13.88;11.02;;;16.60;99.90;;;;;;5038608;28;20469;-81
2022/10/21 11:48:12;;;;;;;14.73;10.27;;;16.60;99.90;;;;;;5043260;28;20040;-81
2022/10/21 11:51:12;;;;;;;13.50;10.68;;;16.60;99.90;;;;;;5058138;28;20060;-81
2022/10/21 11:54:16;;;;;;;13.60;10.98;;;16.60;99.90;;;;;;5047646;28;20120;-81
2022/10/21 11:56:48;;;;;;;18.17;10.73;;;16.60;99.90;;;;;;5067711;28;20063;-81
2022/10/21 11:59:17;;;;;;;15.70;11.25;;;16.60;99.90;;;;;;5028872;28;20044;-81
2022/10/21 12:02:06;;;;;;;14.05;9.82;;;16.60;99.90;;;;;;5042033;28;20084;-81
2022/10/21 12:04:56;;;;;;;12.88;10.73;;;16.60;99.90;;;;;;5038572;28;20428;-82
2022/10/21 12:07:42;;;;;;;17.17;11.30;;;16.60;99.90;;;;;;5040049;28;20551;-81
2022/10/21 12:10:31;;;;;;;12.63;10.52;;;16.60;99.90;;;;;;5039134;28;20064;-82
2022/10/21 12:13:28;;;;;;;14.20;10.70;;;16.70;99.90;;;;;;5046863;28;20049;-81
2022/10/21 12:15:59;;;;;;;16.17;11.45;;;16.70;99.90;;;;;;5046639;28;20290;-81
2022/10/21 12:18:27;;;;;;;13.40;10.02;;;16.70;99.90;;;;;;5052710;28;20146;-81
2022/10/21 12:20:54;;;;;;;14.98;10.13;;;16.70;99.90;;;;;;5034517;28;20055;-81
2022/10/21 12:23:25;;;;;;;13.02;10.02;;;16.70;99.90;;;;;;5050428;28;20049;-81
2022/10/21 12:26:33;;;;;;;13.23;10.65;;;16.80;99.90;;;;;;5033343;28;20052;-82
2022/10/21 12:29:10;;;;;;;12.38;10.10;;;16.70;99.90;;;;;;5020016;28;20144;-81
2022/10/21 12:32:16;;;;;;;13.00;10.60;;;16.70;99.90;;;;;;5066197;28;20078;-81
2022/10/21 12:34:43;;;;;;;13.15;10.15;;;16.70;99.90;;;;;;5051672;28;20419;-80
2022/10/21 12:38:04;;;;;;;12.48;10.15;;;16.70;99.90;;;;;;5036458;28;20040;-81
2022/10/21 12:40:31;;;;;;;13.32;10.20;;;16.70;99.90;;;;;;4998028;28;20097;-81
2022/10/21 12:43:03;;;;;;;18.00;11.63;;;16.70;99.90;;;;;;5049389;28;20052;-81
2022/10/21 12:45:35;;;;;;;14.18;11.27;;;16.70;99.90;;;;;;5062804;28;20049;-81
2022/10/21 12:48:06;;;;;;;15.63;11.05;;;16.70;99.90;;;;;;5062066;28;20044;-81
2022/10/21 12:50:33;;;;;;;14.15;11.10;;;16.70;99.90;;;;;;5047943;28;20080;-81
2022/10/21 12:53:21;;;;;;;14.40;10.77;;;16.70;99.90;;;;;;5047078;28;20089;-81